FLH weather

Flotta Isle Airport
Flotta Isle, Scotland, United Kingdom

Public forecast

Using degrees Celsius for public forecast. Weather courtesy of forecast.io.

METAR (pilot weather report)

Closest report is Kirkwall Airport, 10.8 nm (20.1 km) NE. Retrieved 2019/05/25 06:20 UTC (0 seconds ago):

EGPA 250620Z 32010KT 9999 8000N SCT006 BKN016 BKN026 08/07 Q1015

TAF (pilot weather forecast)

Closest forecast is RAF Lossiemouth, 67.6 nm (125.1 km) S. Retrieved 2019/05/25 06:49 UTC (0 seconds ago):

TAF EGQS 250443Z 2506/2524 29011KT 9999 SCT030 TEMPO 2506/2524 SCT018 PROB40 TEMPO 2511/2524 4000 -RADZ SCT008 BKN020 PROB30 TEMPO 2515/2520 3000 RADZ SCT006